Time;durP1;ratioP1;P1;durP2;ratioP2;P2;SDS_P1;SDS_P2;PMS_P1;PMS_P2;Temp;Humidity;BMP_temperature;BMP_pressure;BME280_temperature;BME280_humidity;BME280_pressure;Samples;Min_cycle;Max_cycle;Signal;HPM_P1;HPM_P2
2022/02/22 00:01:08;;;;;;;5.63;1.70;;;6.50;1.00;;;;;;5104364;28;20436;-60
2022/02/22 00:03:36;;;;;;;7.63;1.90;;;;;;;;;;5104484;28;20440;-59
2022/02/22 00:06:04;;;;;;;3.40;1.30;;;6.50;1.00;;;;;;5097812;28;20274;-59
2022/02/22 00:08:31;;;;;;;6.40;1.67;;;6.50;1.00;;;;;;5107566;28;21022;-60
2022/02/22 00:10:57;;;;;;;2.43;1.57;;;;;;;;;;5104686;28;20527;-59
2022/02/22 00:13:25;;;;;;;2.83;1.53;;;6.60;1.00;;;;;;5100780;28;20439;-60
2022/02/22 00:15:53;;;;;;;3.27;1.60;;;6.60;1.00;;;;;;5101696;28;20606;-60
2022/02/22 00:18:19;;;;;;;4.17;1.13;;;6.70;1.00;;;;;;5103612;28;20443;-59
2022/02/22 00:20:45;;;;;;;6.43;1.37;;;6.80;1.00;;;;;;5109475;28;20514;-60
2022/02/22 00:23:11;;;;;;;2.43;1.17;;;;;;;;;;5103386;28;20186;-59
2022/02/22 00:25:37;;;;;;;2.73;1.30;;;6.70;1.00;;;;;;5105716;28;20439;-60
2022/02/22 00:28:03;;;;;;;3.00;1.03;;;6.70;1.00;;;;;;5111004;28;20466;-59
2022/02/22 00:30:28;;;;;;;2.37;1.40;;;6.80;1.00;;;;;;5103738;28;20340;-58
2022/02/22 00:32:54;;;;;;;2.73;1.00;;;6.80;1.00;;;;;;5105035;28;20178;-58
2022/02/22 00:35:20;;;;;;;3.13;1.20;;;6.90;1.00;;;;;;5089832;28;20212;-60
2022/02/22 00:37:45;;;;;;;5.43;1.57;;;7.00;1.00;;;;;;5104174;28;20277;-60
2022/02/22 00:40:12;;;;;;;2.10;0.90;;;6.90;1.00;;;;;;5105244;28;20837;-58
2022/02/22 00:42:39;;;;;;;2.63;1.00;;;7.00;1.00;;;;;;5106958;28;20182;-59
2022/02/22 00:45:06;;;;;;;3.90;1.90;;;7.00;1.00;;;;;;5103479;28;20448;-59
2022/02/22 00:47:31;;;;;;;1.83;0.97;;;7.00;1.00;;;;;;5102336;28;20448;-58
2022/02/22 00:49:57;;;;;;;2.73;0.90;;;7.00;1.00;;;;;;5102464;28;20995;-59
2022/02/22 00:52:23;;;;;;;4.63;0.80;;;7.10;1.00;;;;;;5101280;28;20740;-60
2022/02/22 00:54:49;;;;;;;3.20;1.20;;;;;;;;;;5097475;28;20468;-59
2022/02/22 00:57:15;;;;;;;5.77;1.53;;;7.10;1.00;;;;;;5095046;28;20620;-60
2022/02/22 00:59:41;;;;;;;4.10;1.40;;;7.00;1.00;;;;;;5094916;28;20448;-59
2022/02/22 01:02:07;;;;;;;0.80;0.80;;;;;;;;;;5099823;28;20443;-60
2022/02/22 01:04:33;;;;;;;2.93;1.20;;;;;;;;;;5105271;28;20182;-59
2022/02/22 01:06:59;;;;;;;2.77;1.00;;;6.70;1.00;;;;;;5103187;28;20496;-59
2022/02/22 01:09:24;;;;;;;3.93;1.20;;;6.60;1.00;;;;;;5111525;28;20433;-59
2022/02/22 01:11:50;;;;;;;4.10;1.43;;;6.60;1.00;;;;;;5093447;28;20189;-59
2022/02/22 01:14:16;;;;;;;3.20;1.10;;;6.70;1.00;;;;;;5101984;28;20909;-59
2022/02/22 01:16:42;;;;;;;2.00;1.00;;;6.60;1.00;;;;;;5102791;28;20263;-61
2022/02/22 01:19:08;;;;;;;4.37;1.03;;;;;;;;;;5110653;28;21004;-59
2022/02/22 01:21:35;;;;;;;2.13;1.30;;;6.70;1.00;;;;;;5076815;28;20574;-58
2022/02/22 01:24:02;;;;;;;2.17;1.20;;;6.70;1.00;;;;;;5095385;28;20444;-58
2022/02/22 01:26:28;;;;;;;4.43;1.50;;;6.60;1.00;;;;;;5100416;28;20513;-58
2022/02/22 01:28:54;;;;;;;2.80;1.07;;;6.60;1.00;;;;;;5098503;28;20440;-58
2022/02/22 01:31:20;;;;;;;5.30;1.57;;;;;;;;;;5100105;28;20842;-59
2022/02/22 01:33:46;;;;;;;1.97;1.20;;;;;;;;;;5105113;28;20444;-59
2022/02/22 01:36:12;;;;;;;4.87;1.53;;;;;;;;;;5107848;28;20467;-58
2022/02/22 01:38:38;;;;;;;1.40;1.13;;;6.70;1.00;;;;;;5100246;28;20483;-58
2022/02/22 01:41:07;;;;;;;5.03;1.47;;;6.80;1.00;;;;;;5098778;28;20842;-59
2022/02/22 01:43:32;;;;;;;2.70;1.00;;;6.60;1.00;;;;;;5099343;28;20291;-59
2022/02/22 01:45:58;;;;;;;5.00;1.40;;;6.60;1.00;;;;;;5082046;28;20436;-58
2022/02/22 01:48:24;;;;;;;4.87;1.20;;;6.50;1.00;;;;;;5101061;28;20560;-59
2022/02/22 01:50:49;;;;;;;1.10;1.00;;;6.60;1.00;;;;;;5080162;28;20204;-59
2022/02/22 01:53:15;;;;;;;3.03;1.27;;;6.50;1.00;;;;;;5098190;28;20616;-59
2022/02/22 01:55:42;;;;;;;5.93;1.40;;;6.50;1.00;;;;;;5094516;28;20198;-59
2022/02/22 01:58:08;;;;;;;3.33;1.23;;;6.50;1.00;;;;;;5093207;28;20953;-60
2022/02/22 02:00:34;;;;;;;2.60;0.90;;;;;;;;;;5094109;28;20427;-60
2022/02/22 02:03:00;;;;;;;1.40;1.30;;;6.50;1.00;;;;;;5093319;28;20235;-59
2022/02/22 02:05:25;;;;;;;2.00;1.23;;;6.50;1.00;;;;;;5099760;28;20841;-60
2022/02/22 02:07:53;;;;;;;1.47;1.17;;;5.30;1.00;;;;;;5105548;28;20500;-60
2022/02/22 02:10:18;;;;;;;5.80;1.00;;;6.60;1.00;;;;;;5097248;28;20636;-59
2022/02/22 02:12:44;;;;;;;2.93;1.30;;;6.60;1.00;;;;;;5105457;28;20421;-59
2022/02/22 02:15:10;;;;;;;2.00;1.13;;;6.70;1.00;;;;;;5091492;28;20678;-61
2022/02/22 02:17:36;;;;;;;1.30;0.80;;;6.70;1.00;;;;;;5104896;28;20186;-61
2022/02/22 02:20:06;;;;;;;1.57;1.20;;;6.80;1.00;;;;;;5093912;28;20186;-60
2022/02/22 02:22:32;;;;;;;4.00;0.90;;;6.70;1.00;;;;;;5102769;28;20432;-60
2022/02/22 02:24:58;;;;;;;1.37;0.80;;;6.70;1.00;;;;;;5103891;28;20911;-59
2022/02/22 02:27:23;;;;;;;2.43;0.90;;;6.80;1.00;;;;;;5101477;28;20451;-59
2022/02/22 02:29:49;;;;;;;1.63;1.17;;;;;;;;;;5093014;28;20433;-59
2022/02/22 02:32:15;;;;;;;2.77;0.73;;;6.70;1.00;;;;;;5095088;28;20183;-58
2022/02/22 02:34:41;;;;;;;2.17;1.07;;;;;;;;;;5092330;28;20871;-59
2022/02/22 02:37:07;;;;;;;2.53;1.10;;;;;;;;;;5096843;28;20185;-59
2022/02/22 02:39:33;;;;;;;1.37;0.70;;;6.60;1.00;;;;;;5095161;28;20490;-61
2022/02/22 02:41:59;;;;;;;2.17;0.87;;;6.70;1.00;;;;;;5102565;28;20530;-59
2022/02/22 02:44:25;;;;;;;1.63;0.70;;;6.60;1.00;;;;;;5103914;28;20190;-60
2022/02/22 02:46:51;;;;;;;3.23;0.80;;;;;;;;;;5095788;28;20510;-60
2022/02/22 02:49:20;;;;;;;0.93;0.73;;;6.50;1.00;;;;;;5109064;28;20444;-58
2022/02/22 02:51:46;;;;;;;1.33;0.57;;;6.50;1.00;;;;;;5100130;28;20437;-59
2022/02/22 02:54:13;;;;;;;2.43;0.93;;;6.50;1.00;;;;;;5095273;28;20529;-59
2022/02/22 02:56:39;;;;;;;1.87;0.80;;;6.60;1.00;;;;;;5098802;28;20454;-58
2022/02/22 02:59:07;;;;;;;1.17;1.07;;;6.60;1.00;;;;;;5106711;28;20550;-59
2022/02/22 03:01:35;;;;;;;2.80;0.60;;;6.50;1.00;;;;;;5095381;28;20987;-59
2022/02/22 03:04:02;;;;;;;3.40;1.10;;;6.60;1.00;;;;;;5107526;28;20442;-59
2022/02/22 03:06:27;;;;;;;1.40;0.60;;;6.70;1.00;;;;;;5105225;28;20431;-59
2022/02/22 03:08:53;;;;;;;1.87;0.77;;;6.80;1.00;;;;;;5096378;28;20461;-61
2022/02/22 03:11:19;;;;;;;2.57;0.83;;;;;;;;;;5103813;28;20501;-60
2022/02/22 03:13:45;;;;;;;3.30;1.00;;;6.50;1.00;;;;;;5101955;28;20918;-59
2022/02/22 03:16:11;;;;;;;4.67;1.10;;;6.50;1.00;;;;;;5105682;28;20490;-60
2022/02/22 03:18:36;;;;;;;4.57;1.20;;;6.40;1.00;;;;;;5095949;28;20457;-60
2022/02/22 03:21:05;;;;;;;2.13;0.90;;;6.40;1.00;;;;;;5093130;28;20199;-60
2022/02/22 03:23:31;;;;;;;6.53;1.13;;;6.40;1.00;;;;;;5097836;28;20484;-59
2022/02/22 03:25:57;;;;;;;1.33;0.70;;;6.50;1.00;;;;;;5105123;28;20475;-60
2022/02/22 03:28:23;;;;;;;3.77;1.20;;;6.50;1.00;;;;;;5096862;28;20190;-59
2022/02/22 03:30:49;;;;;;;4.53;1.17;;;;;;;;;;5093750;28;20441;-59
2022/02/22 03:33:15;;;;;;;2.47;1.50;;;6.50;1.00;;;;;;5094063;28;20671;-60
2022/02/22 03:35:42;;;;;;;3.83;0.87;;;6.50;1.00;;;;;;5094254;28;20460;-59
2022/02/22 03:38:08;;;;;;;1.50;1.33;;;6.40;1.00;;;;;;5096318;28;20506;-59
2022/02/22 03:40:34;;;;;;;4.03;1.23;;;6.40;1.00;;;;;;5094623;28;20456;-59
2022/02/22 03:43:00;;;;;;;1.77;0.90;;;6.40;1.00;;;;;;5103258;28;20480;-59
2022/02/22 03:45:26;;;;;;;5.03;1.53;;;6.30;1.00;;;;;;5106416;28;20536;-59
2022/02/22 03:47:51;;;;;;;1.90;0.93;;;6.30;1.00;;;;;;5094821;28;20591;-60
2022/02/22 03:50:17;;;;;;;3.40;0.80;;;6.30;1.00;;;;;;5094947;28;20194;-60
2022/02/22 03:52:44;;;;;;;1.70;1.20;;;6.30;1.00;;;;;;5097228;28;20232;-60
2022/02/22 03:55:10;;;;;;;1.03;0.93;;;6.30;1.00;;;;;;5099837;28;20209;-60
2022/02/22 03:57:36;;;;;;;2.37;1.30;;;6.40;1.00;;;;;;5108065;28;20435;-59
2022/02/22 04:00:25;;;;;;;2.63;0.93;;;6.40;1.00;;;;;;5101044;28;20455;-59
2022/02/22 04:02:51;;;;;;;3.10;1.27;;;6.40;1.00;;;;;;5103173;28;20440;-59
2022/02/22 04:05:20;;;;;;;1.77;1.20;;;6.40;1.00;;;;;;5095606;28;20474;-60
2022/02/22 04:07:46;;;;;;;3.13;1.20;;;;;;;;;;5101648;28;20575;-59
2022/02/22 04:10:12;;;;;;;4.23;1.10;;;;;;;;;;5092318;28;20513;-59
2022/02/22 04:12:38;;;;;;;6.43;2.10;;;6.40;1.00;;;;;;5079779;28;20456;-59
2022/02/22 04:15:05;;;;;;;3.47;1.37;;;6.40;1.00;;;;;;5094485;28;20472;-59
2022/02/22 04:17:31;;;;;;;3.60;1.43;;;6.30;1.00;;;;;;5095603;28;20438;-59
2022/02/22 04:19:57;;;;;;;4.53;1.57;;;6.40;1.00;;;;;;5101815;28;20440;-59
2022/02/22 04:22:22;;;;;;;1.57;1.20;;;6.40;1.00;;;;;;5102988;28;20251;-60
2022/02/22 04:24:48;;;;;;;3.30;1.30;;;6.30;1.00;;;;;;5105953;28;20527;-59
2022/02/22 04:27:14;;;;;;;5.30;1.93;;;6.30;1.00;;;;;;5107684;28;20186;-58
2022/02/22 04:29:39;;;;;;;3.30;1.30;;;6.30;1.00;;;;;;5107611;28;20252;-59
2022/02/22 04:32:06;;;;;;;2.80;1.50;;;6.10;1.00;;;;;;5106098;28;21455;-59
2022/02/22 04:34:32;;;;;;;3.77;1.47;;;;;;;;;;5111344;28;20198;-60
2022/02/22 04:36:57;;;;;;;1.47;1.30;;;6.00;1.00;;;;;;5109860;28;22166;-60
2022/02/22 04:39:23;;;;;;;1.57;1.23;;;6.00;1.00;;;;;;5103863;28;20470;-59
2022/02/22 04:41:50;;;;;;;4.43;1.60;;;6.00;1.00;;;;;;5088967;28;20178;-60
2022/02/22 04:44:16;;;;;;;2.50;1.40;;;6.10;1.00;;;;;;5106156;28;20186;-58
2022/02/22 04:46:42;;;;;;;1.40;1.00;;;;;;;;;;5104236;28;20440;-58
2022/02/22 04:49:09;;;;;;;4.40;1.40;;;6.00;1.00;;;;;;5107902;28;20469;-58
2022/02/22 04:51:36;;;;;;;3.37;1.33;;;6.10;1.00;;;;;;5100654;28;20442;-59
2022/02/22 04:54:01;;;;;;;4.20;1.60;;;6.10;1.00;;;;;;5103959;28;20495;-59
2022/02/22 04:56:27;;;;;;;3.03;1.47;;;6.20;1.00;;;;;;5096535;28;20977;-60
2022/02/22 04:58:53;;;;;;;6.10;1.50;;;6.30;1.00;;;;;;5104294;28;20266;-59
2022/02/22 05:01:18;;;;;;;4.40;1.50;;;;;;;;;;5108684;28;20213;-59
2022/02/22 05:03:44;;;;;;;6.90;2.20;;;6.20;1.00;;;;;;5106341;28;20257;-58
2022/02/22 05:06:10;;;;;;;7.03;2.20;;;6.30;1.00;;;;;;5099920;28;20460;-59
2022/02/22 05:08:35;;;;;;;10.10;1.97;;;;;;;;;;5102352;28;20513;-58
2022/02/22 05:11:01;;;;;;;13.17;2.17;;;6.10;1.00;;;;;;5100664;28;20182;-59
2022/02/22 05:13:26;;;;;;;15.67;2.70;;;6.10;1.00;;;;;;5102333;28;20535;-59
2022/02/22 05:15:52;;;;;;;9.03;2.13;;;6.20;1.00;;;;;;5098471;28;20620;-58
2022/02/22 05:18:18;;;;;;;11.70;3.60;;;;;;;;;;5107264;28;20178;-59
2022/02/22 05:20:54;;;;;;;13.83;2.47;;;6.00;1.00;;;;;;5099475;28;20548;-60
2022/02/22 05:23:20;;;;;;;5.77;2.00;;;6.00;1.00;;;;;;5098962;28;20917;-60
2022/02/22 05:25:46;;;;;;;6.80;2.40;;;6.00;1.00;;;;;;5096052;28;20901;-59
2022/02/22 05:28:11;;;;;;;10.90;2.50;;;6.00;1.00;;;;;;5102852;28;20451;-60
2022/02/22 05:30:37;;;;;;;9.50;2.10;;;5.90;1.00;;;;;;5100232;28;20191;-59
2022/02/22 05:33:03;;;;;;;6.87;1.97;;;5.80;1.00;;;;;;5093342;28;20205;-59
2022/02/22 05:35:29;;;;;;;10.00;2.17;;;5.90;1.00;;;;;;5105083;28;20240;-60
2022/02/22 05:37:54;;;;;;;15.70;2.23;;;5.90;1.00;;;;;;5111109;28;20512;-59
2022/02/22 05:40:20;;;;;;;9.77;2.37;;;5.90;1.00;;;;;;5101506;28;20185;-61
2022/02/22 05:42:45;;;;;;;11.87;3.00;;;5.90;1.00;;;;;;5095584;28;20210;-59
2022/02/22 05:45:11;;;;;;;10.50;3.10;;;6.00;1.00;;;;;;5102405;28;20201;-60
2022/02/22 05:47:36;;;;;;;3.00;1.47;;;5.90;1.00;;;;;;5105184;28;20295;-60
2022/02/22 05:50:02;;;;;;;6.00;2.30;;;5.80;1.00;;;;;;5095234;28;20266;-59
2022/02/22 05:52:28;;;;;;;7.87;2.17;;;5.90;1.00;;;;;;5096181;28;20512;-61
2022/02/22 05:54:54;;;;;;;8.77;2.17;;;;;;;;;;5108312;28;21020;-59
2022/02/22 05:57:23;;;;;;;7.90;2.37;;;6.00;1.00;;;;;;5101933;28;20174;-59
2022/02/22 05:59:49;;;;;;;7.77;2.30;;;6.00;1.00;;;;;;5093490;28;20441;-60
2022/02/22 06:02:14;;;;;;;6.73;2.43;;;6.00;1.00;;;;;;5101849;28;20506;-60
2022/02/22 06:04:40;;;;;;;8.23;2.50;;;;;;;;;;5102934;28;20613;-61
2022/02/22 06:07:05;;;;;;;7.07;3.53;;;6.10;1.00;;;;;;5094240;28;20194;-61
2022/02/22 06:09:31;;;;;;;6.53;2.20;;;6.10;1.00;;;;;;5099979;28;20457;-61
2022/02/22 06:11:57;;;;;;;13.63;3.60;;;;;;;;;;5076215;28;20201;-60
2022/02/22 06:14:22;;;;;;;7.00;2.40;;;6.30;1.00;;;;;;5092471;28;20214;-59
2022/02/22 06:16:51;;;;;;;7.50;2.83;;;6.30;1.00;;;;;;5096598;28;20448;-60
2022/02/22 06:19:17;;;;;;;8.60;2.20;;;6.20;1.00;;;;;;5094522;28;20652;-60
2022/02/22 06:21:42;;;;;;;16.97;2.97;;;;;;;;;;5096846;28;20502;-62
2022/02/22 06:24:08;;;;;;;21.03;3.00;;;6.00;1.00;;;;;;5103499;28;20212;-60
2022/02/22 06:26:34;;;;;;;8.87;4.03;;;;;;;;;;5109647;28;20443;-60
2022/02/22 06:29:01;;;;;;;11.63;3.20;;;;;;;;;;5101787;28;20183;-60
2022/02/22 06:31:26;;;;;;;14.73;2.33;;;5.90;1.00;;;;;;5098789;28;20958;-60
2022/02/22 06:33:52;;;;;;;8.83;2.40;;;;;;;;;;5100647;28;20453;-60
2022/02/22 06:36:18;;;;;;;6.80;2.10;;;5.90;1.00;;;;;;5097027;28;20210;-60
2022/02/22 06:38:43;;;;;;;8.00;3.00;;;6.00;1.00;;;;;;5098107;28;20725;-61
2022/02/22 06:41:09;;;;;;;11.93;2.70;;;5.90;1.00;;;;;;5110752;28;20184;-60
2022/02/22 06:43:34;;;;;;;10.47;2.00;;;5.90;1.00;;;;;;5107974;28;20223;-60
2022/02/22 06:46:00;;;;;;;16.50;2.40;;;5.90;1.00;;;;;;5092109;28;20248;-60
2022/02/22 06:48:25;;;;;;;7.23;2.13;;;5.80;1.00;;;;;;5093545;28;20261;-60
2022/02/22 06:50:51;;;;;;;9.47;3.07;;;5.80;1.00;;;;;;5090861;28;20183;-61
2022/02/22 06:53:17;;;;;;;10.50;2.10;;;;;;;;;;5094126;28;20229;-59
2022/02/22 06:55:43;;;;;;;7.60;3.37;;;5.80;1.00;;;;;;5096101;28;20577;-61
2022/02/22 06:58:10;;;;;;;5.40;1.90;;;5.80;1.00;;;;;;5110216;28;20444;-61
2022/02/22 07:00:37;;;;;;;7.87;2.10;;;6.00;1.00;;;;;;5107874;28;20438;-60
2022/02/22 07:03:04;;;;;;;6.27;2.13;;;6.00;1.00;;;;;;5098801;28;20444;-60
2022/02/22 07:05:33;;;;;;;6.93;2.30;;;6.00;1.00;;;;;;5093868;28;20444;-60
2022/02/22 07:07:59;;;;;;;7.07;2.90;;;;;;;;;;5096779;28;20448;-60
2022/02/22 07:10:26;;;;;;;12.70;2.93;;;6.10;1.00;;;;;;5101297;28;20439;-60
2022/02/22 07:12:52;;;;;;;7.20;2.43;;;;;;;;;;5095433;28;20437;-61
2022/02/22 07:15:18;;;;;;;13.47;3.63;;;6.10;1.00;;;;;;5096345;28;20473;-59
2022/02/22 07:17:47;;;;;;;8.73;2.37;;;6.20;1.00;;;;;;5094219;28;20501;-60
2022/02/22 07:20:14;;;;;;;10.57;3.53;;;6.10;1.00;;;;;;5094924;28;20437;-60
2022/02/22 07:22:40;;;;;;;5.57;2.13;;;;;;;;;;5102393;28;20438;-61
2022/02/22 07:25:07;;;;;;;13.90;2.80;;;6.30;1.00;;;;;;5110312;28;20498;-61
2022/02/22 07:27:33;;;;;;;10.13;2.27;;;6.30;1.00;;;;;;5094749;28;21153;-60
2022/02/22 07:29:58;;;;;;;10.50;2.37;;;6.30;1.00;;;;;;5086213;28;20484;-61
2022/02/22 07:32:24;;;;;;;9.00;1.63;;;6.30;1.00;;;;;;5095395;28;20537;-61
2022/02/22 07:34:49;;;;;;;9.43;2.50;;;6.30;1.00;;;;;;5096674;28;20671;-61
2022/02/22 07:37:15;;;;;;;12.90;2.80;;;;;;;;;;5099499;28;20194;-65
2022/02/22 07:39:41;;;;;;;10.73;2.30;;;6.40;1.00;;;;;;5107159;28;20193;-60
2022/02/22 07:42:06;;;;;;;8.20;2.50;;;6.50;1.00;;;;;;5101430;28;20439;-60
2022/02/22 07:44:33;;;;;;;10.07;3.00;;;6.40;1.00;;;;;;5092303;28;20218;-60
2022/02/22 07:46:58;;;;;;;12.47;2.60;;;6.40;1.00;;;;;;5098498;28;20182;-61
2022/02/22 07:49:24;;;;;;;7.73;2.37;;;6.40;1.00;;;;;;5097622;28;20447;-62
2022/02/22 07:51:49;;;;;;;7.33;2.50;;;6.50;1.00;;;;;;5108639;28;20193;-61
2022/02/22 07:54:15;;;;;;;10.97;3.00;;;6.50;1.00;;;;;;5109980;28;20304;-59
2022/02/22 07:56:41;;;;;;;9.87;2.43;;;6.40;1.00;;;;;;5112855;28;20523;-60
2022/02/22 07:59:06;;;;;;;13.90;3.67;;;6.40;1.00;;;;;;5082205;28;20227;-60
2022/02/22 08:01:32;;;;;;;9.73;3.10;;;6.60;1.00;;;;;;5113749;28;20831;-60
2022/02/22 08:03:58;;;;;;;6.70;1.80;;;6.60;1.00;;;;;;5102426;28;20267;-60
2022/02/22 08:06:25;;;;;;;14.57;3.03;;;6.60;1.00;;;;;;5102558;28;20182;-60
2022/02/22 08:08:50;;;;;;;9.93;2.90;;;6.70;1.00;;;;;;5107296;28;20543;-61
2022/02/22 08:11:16;;;;;;;8.70;2.90;;;6.70;1.00;;;;;;5113799;28;20432;-59
2022/02/22 08:13:42;;;;;;;11.47;3.03;;;6.80;1.00;;;;;;5105346;28;20231;-60
2022/02/22 08:16:07;;;;;;;11.00;2.87;;;6.60;1.00;;;;;;5110899;28;20202;-59
2022/02/22 08:18:33;;;;;;;8.57;2.90;;;6.60;1.00;;;;;;5101859;28;20663;-60
2022/02/22 08:20:59;;;;;;;9.43;2.67;;;6.60;1.00;;;;;;5097155;28;20258;-61
2022/02/22 08:23:30;;;;;;;8.93;2.53;;;6.40;1.00;;;;;;5095107;28;20186;-60
2022/02/22 08:25:57;;;;;;;8.53;2.73;;;6.50;1.00;;;;;;5102035;28;20222;-60
2022/02/22 08:28:23;;;;;;;8.80;2.63;;;6.50;1.00;;;;;;5100626;28;20447;-61
2022/02/22 08:30:49;;;;;;;16.03;2.93;;;;;;;;;;5110610;28;20440;-61
2022/02/22 08:33:14;;;;;;;7.50;2.30;;;6.40;1.00;;;;;;5094722;28;20274;-60
2022/02/22 08:35:40;;;;;;;11.87;4.00;;;6.40;1.00;;;;;;5111262;28;20493;-60
2022/02/22 08:38:06;;;;;;;17.87;3.50;;;6.40;1.00;;;;;;5096480;28;20190;-61
2022/02/22 08:40:31;;;;;;;10.63;2.60;;;6.40;1.00;;;;;;5100903;28;20178;-61
2022/02/22 08:42:57;;;;;;;12.80;3.20;;;6.50;1.00;;;;;;5113789;28;20188;-61
2022/02/22 08:45:24;;;;;;;10.10;2.60;;;6.50;1.00;;;;;;5113458;28;20631;-59
2022/02/22 08:47:50;;;;;;;14.43;3.07;;;6.60;1.00;;;;;;5110484;28;20185;-61
2022/02/22 08:50:16;;;;;;;12.57;3.40;;;6.70;1.00;;;;;;5100400;28;20471;-61
2022/02/22 08:52:41;;;;;;;17.90;3.60;;;6.70;1.00;;;;;;5096824;28;20500;-61
2022/02/22 08:55:08;;;;;;;13.57;2.07;;;6.90;1.00;;;;;;5096082;28;20210;-58
2022/02/22 08:57:34;;;;;;;11.70;3.37;;;6.80;1.00;;;;;;5099237;28;20217;-58
2022/02/22 09:00:00;;;;;;;12.47;3.20;;;6.90;1.00;;;;;;5102259;28;20433;-58
2022/02/22 09:02:26;;;;;;;18.03;3.47;;;;;;;;;;5093845;28;20214;-58
2022/02/22 09:04:52;;;;;;;13.43;2.87;;;7.00;1.00;;;;;;5094311;28;20820;-58
2022/02/22 09:07:17;;;;;;;13.53;2.93;;;6.90;1.00;;;;;;5093465;28;20484;-58
2022/02/22 09:09:43;;;;;;;19.10;4.97;;;6.90;1.00;;;;;;5096177;28;20256;-58
2022/02/22 09:12:09;;;;;;;11.33;2.80;;;7.00;1.00;;;;;;5105149;28;20235;-59
2022/02/22 09:14:35;;;;;;;7.47;2.80;;;7.00;1.00;;;;;;5101440;28;20203;-58
2022/02/22 09:17:01;;;;;;;7.87;2.97;;;7.20;1.00;;;;;;5096222;28;20451;-60
2022/02/22 09:19:27;;;;;;;9.67;2.20;;;;;;;;;;5098604;28;20413;-58
2022/02/22 09:21:52;;;;;;;12.53;4.20;;;7.30;1.00;;;;;;5106118;28;20170;-60
2022/02/22 09:24:18;;;;;;;13.57;3.13;;;7.10;1.00;;;;;;5096862;28;20437;-59
2022/02/22 09:26:44;;;;;;;15.90;3.70;;;;;;;;;;5102917;28;20190;-59
2022/02/22 09:29:10;;;;;;;14.33;3.93;;;;;;;;;;5099298;28;20167;-59
2022/02/22 09:31:35;;;;;;;12.23;2.90;;;7.00;1.00;;;;;;5095518;28;20542;-60
2022/02/22 09:34:01;;;;;;;8.53;3.70;;;7.00;1.00;;;;;;5094772;28;20502;-59
2022/02/22 09:36:27;;;;;;;16.53;3.50;;;;;;;;;;5101627;28;20188;-59
2022/02/22 09:38:52;;;;;;;9.40;2.47;;;6.90;1.00;;;;;;5112492;28;20195;-58
2022/02/22 09:41:18;;;;;;;10.47;3.20;;;;;;;;;;5101325;28;20635;-60
2022/02/22 09:43:44;;;;;;;13.27;3.03;;;7.00;1.00;;;;;;5103320;28;20192;-59
2022/02/22 09:46:10;;;;;;;10.33;2.50;;;6.90;1.00;;;;;;5109142;28;20447;-59
2022/02/22 09:48:36;;;;;;;13.80;2.70;;;7.00;1.00;;;;;;5103207;28;20240;-59
2022/02/22 09:51:05;;;;;;;9.17;3.00;;;;;;;;;;5103833;28;20206;-59
2022/02/22 09:53:32;;;;;;;14.90;3.20;;;7.20;1.00;;;;;;5102559;28;20555;-61
2022/02/22 09:55:57;;;;;;;11.77;2.53;;;7.10;1.00;;;;;;5076401;28;20472;-59
2022/02/22 09:58:23;;;;;;;8.90;2.67;;;7.10;1.00;;;;;;5101744;28;20968;-59
2022/02/22 10:00:59;;;;;;;10.20;3.03;;;7.20;1.00;;;;;;5101723;28;20232;-59
2022/02/22 10:03:24;;;;;;;13.70;2.97;;;7.20;1.00;;;;;;5098626;28;20447;-60
2022/02/22 10:06:05;;;;;;;15.70;3.20;;;7.00;1.00;;;;;;5103263;28;20440;-59
2022/02/22 10:08:33;;;;;;;9.73;3.17;;;7.00;1.00;;;;;;5098594;28;20537;-58
2022/02/22 10:11:01;;;;;;;13.40;2.10;;;7.00;1.00;;;;;;5096285;28;20877;-58
2022/02/22 10:13:31;;;;;;;15.43;3.20;;;7.10;1.00;;;;;;5096550;28;20436;-59
2022/02/22 10:15:58;;;;;;;9.17;2.20;;;7.10;1.00;;;;;;5098622;28;20492;-59
2022/02/22 10:18:24;;;;;;;5.97;2.13;;;7.10;1.00;;;;;;5100393;28;20468;-59
2022/02/22 10:20:50;;;;;;;13.53;3.70;;;;;;;;;;5097376;28;20945;-59
2022/02/22 10:23:32;;;;;;;22.40;3.87;;;7.20;1.00;;;;;;5098679;28;20436;-60
2022/02/22 10:25:59;;;;;;;9.37;2.57;;;7.10;1.00;;;;;;5101175;28;20418;-60
2022/02/22 10:28:25;;;;;;;9.83;2.70;;;7.20;1.00;;;;;;5106062;28;20448;-59
2022/02/22 10:30:53;;;;;;;11.30;3.03;;;7.10;1.00;;;;;;5106791;28;20416;-59
2022/02/22 10:33:27;;;;;;;8.80;2.90;;;7.10;1.00;;;;;;5097260;28;20450;-59
2022/02/22 10:35:56;;;;;;;13.40;3.73;;;7.10;1.00;;;;;;5107279;28;20463;-59
2022/02/22 10:38:29;;;;;;;14.07;3.20;;;7.20;1.00;;;;;;5109675;28;20465;-59
2022/02/22 10:41:01;;;;;;;8.43;3.33;;;7.40;1.00;;;;;;5106984;28;20435;-59
2022/02/22 10:43:34;;;;;;;7.73;2.70;;;7.60;1.00;;;;;;5079803;28;20523;-59
2022/02/22 10:46:06;;;;;;;14.40;3.23;;;7.70;1.00;;;;;;5099573;28;20449;-60
2022/02/22 10:48:42;;;;;;;9.33;3.17;;;7.70;1.00;;;;;;5099333;28;20459;-59
2022/02/22 10:51:14;;;;;;;8.70;3.20;;;7.90;1.00;;;;;;5100340;28;20522;-60
2022/02/22 10:53:42;;;;;;;11.13;2.93;;;7.80;1.00;;;;;;5098046;28;20558;-59
2022/02/22 10:56:11;;;;;;;10.20;3.00;;;7.80;1.00;;;;;;5103640;28;20471;-59
2022/02/22 10:58:40;;;;;;;9.70;3.00;;;7.90;1.00;;;;;;5108083;28;20457;-59
2022/02/22 11:01:10;;;;;;;10.90;4.03;;;8.10;1.00;;;;;;5099173;28;20435;-60
2022/02/22 11:03:41;;;;;;;9.73;3.33;;;8.00;1.00;;;;;;5105373;28;20988;-59
2022/02/22 11:06:08;;;;;;;14.97;3.70;;;7.90;1.00;;;;;;5110344;28;20410;-61
2022/02/22 11:08:34;;;;;;;12.53;3.17;;;;;;;;;;5091599;28;20444;-59
2022/02/22 11:11:21;;;;;;;8.10;2.50;;;7.70;1.00;;;;;;5101505;28;20458;-58
2022/02/22 11:13:59;;;;;;;14.60;2.93;;;7.80;1.00;;;;;;5110527;28;20398;-58
2022/02/22 11:16:25;;;;;;;9.83;3.10;;;7.90;1.00;;;;;;5105827;28;20470;-59
2022/02/22 11:18:53;;;;;;;5.47;2.43;;;8.10;1.00;;;;;;5104718;28;20476;-59
2022/02/22 11:21:22;;;;;;;9.90;3.00;;;8.10;1.00;;;;;;5105453;28;20434;-60
2022/02/22 11:23:47;;;;;;;8.50;3.17;;;8.20;1.00;;;;;;5095426;28;20465;-60
2022/02/22 11:26:23;;;;;;;15.50;4.67;;;8.30;1.00;;;;;;5106269;28;20432;-60
2022/02/22 11:28:51;;;;;;;14.20;2.80;;;7.90;1.00;;;;;;5093912;28;20217;-60
2022/02/22 11:31:27;;;;;;;9.07;2.83;;;8.00;1.00;;;;;;5108715;28;20443;-59
2022/02/22 11:34:00;;;;;;;10.03;3.40;;;8.10;1.00;;;;;;5109392;28;20749;-58
2022/02/22 11:36:37;;;;;;;14.70;3.40;;;8.10;1.00;;;;;;5113543;28;20470;-59
2022/02/22 11:39:05;;;;;;;8.07;2.33;;;8.00;1.00;;;;;;5114883;28;20470;-58
2022/02/22 11:41:42;;;;;;;10.13;2.50;;;8.10;1.00;;;;;;5105992;28;20491;-59
2022/02/22 11:44:22;;;;;;;9.70;2.30;;;8.10;1.00;;;;;;5094426;28;20440;-58
2022/02/22 11:46:52;;;;;;;10.13;2.63;;;8.20;1.00;;;;;;5087506;28;20451;-60
2022/02/22 11:49:32;;;;;;;8.00;2.40;;;8.30;1.00;;;;;;5104986;28;20435;-60
2022/02/22 11:52:09;;;;;;;12.70;3.00;;;8.30;1.00;;;;;;5094349;28;20411;-59
2022/02/22 11:54:35;;;;;;;13.50;2.97;;;8.10;1.00;;;;;;5109265;28;20488;-59
2022/02/22 11:57:08;;;;;;;11.63;3.00;;;8.20;1.00;;;;;;5114284;28;20522;-59
2022/02/22 11:59:52;;;;;;;9.67;3.37;;;8.40;1.00;;;;;;5113857;28;20493;-59
2022/02/22 12:02:33;;;;;;;12.33;1.93;;;8.60;1.00;;;;;;5110144;28;20485;-59
2022/02/22 12:05:00;;;;;;;6.77;3.10;;;8.30;1.00;;;;;;5100814;28;20448;-60
2022/02/22 12:07:32;;;;;;;9.67;3.20;;;8.20;1.00;;;;;;5095248;28;20538;-59
2022/02/22 12:09:59;;;;;;;10.77;3.70;;;8.00;1.00;;;;;;5113484;28;20442;-59
2022/02/22 12:12:26;;;;;;;10.93;2.80;;;7.90;1.00;;;;;;5113422;28;20484;-59
2022/02/22 12:14:55;;;;;;;10.73;2.90;;;8.00;1.00;;;;;;5112462;28;20935;-60
2022/02/22 12:17:21;;;;;;;17.90;3.20;;;7.90;1.00;;;;;;5106736;28;20519;-60
2022/02/22 12:19:49;;;;;;;10.57;2.57;;;8.00;1.00;;;;;;5098349;28;20432;-59
2022/02/22 12:22:15;;;;;;;11.53;2.90;;;;;;;;;;5105902;28;20470;-60
2022/02/22 12:24:42;;;;;;;13.63;2.43;;;;;;;;;;5109533;28;20500;-58
2022/02/22 12:27:12;;;;;;;13.80;2.40;;;8.50;1.00;;;;;;5104143;28;20431;-59
2022/02/22 12:29:38;;;;;;;16.97;3.97;;;8.60;1.00;;;;;;5105998;28;20444;-59
2022/02/22 12:32:04;;;;;;;11.80;3.17;;;8.50;1.00;;;;;;5104614;28;20456;-59
2022/02/22 12:34:30;;;;;;;9.13;2.40;;;8.50;1.00;;;;;;5102678;28;20510;-58
2022/02/22 12:37:00;;;;;;;7.07;1.90;;;8.40;1.00;;;;;;5103818;28;20467;-59
2022/02/22 12:39:29;;;;;;;8.77;2.60;;;8.60;1.00;;;;;;5105076;28;20452;-60
2022/02/22 12:41:57;;;;;;;14.00;2.80;;;8.70;1.00;;;;;;5110248;28;20471;-59
2022/02/22 12:44:24;;;;;;;9.63;2.60;;;8.50;1.00;;;;;;5107824;28;20559;-59
2022/02/22 12:46:53;;;;;;;6.23;2.43;;;8.40;1.00;;;;;;5103456;28;20451;-60
2022/02/22 12:49:21;;;;;;;8.50;2.50;;;8.50;1.00;;;;;;5102833;28;20420;-59
2022/02/22 12:51:49;;;;;;;8.70;2.50;;;8.70;1.00;;;;;;5110598;28;20444;-58
2022/02/22 12:54:17;;;;;;;4.77;2.10;;;8.70;1.00;;;;;;5092390;28;20464;-58
2022/02/22 12:56:53;;;;;;;12.47;3.10;;;8.70;1.00;;;;;;5096311;28;20910;-58
2022/02/22 12:59:26;;;;;;;8.83;1.70;;;8.90;1.00;;;;;;5105356;28;20515;-58
2022/02/22 13:01:52;;;;;;;5.00;2.17;;;9.10;1.00;;;;;;5094546;28;20932;-58
2022/02/22 13:04:25;;;;;;;12.63;2.77;;;9.00;1.00;;;;;;5111463;28;20443;-59
2022/02/22 13:06:54;;;;;;;9.67;2.43;;;9.00;1.00;;;;;;5112738;28;20409;-58
2022/02/22 13:09:21;;;;;;;14.50;2.80;;;9.10;1.00;;;;;;5113073;28;20428;-58
2022/02/22 13:11:49;;;;;;;11.47;3.03;;;8.90;1.00;;;;;;5107372;28;20915;-60
2022/02/22 13:14:16;;;;;;;8.13;3.10;;;9.00;1.00;;;;;;5092563;28;20825;-60
2022/02/22 13:17:00;;;;;;;13.00;2.10;;;9.00;1.00;;;;;;5097822;28;20526;-60